Time;durP1;ratioP1;P1;durP2;ratioP2;P2;SDS_P1;SDS_P2;PMS_P1;PMS_P2;Temp;Humidity;BMP_temperature;BMP_pressure;BME280_temperature;BME280_humidity;BME280_pressure;Samples;Min_cycle;Max_cycle;Signal;HPM_P1;HPM_P2
2023/12/07 00:00:51;;;;;;;17.00;11.67;;;0.10;99.90;;;;;;5093851;28;20732;-77
2023/12/07 00:03:16;;;;;;;19.80;11.90;;;0.10;99.90;;;;;;5093984;28;20178;-77
2023/12/07 00:05:42;;;;;;;15.20;11.00;;;0.00;99.90;;;;;;5092596;28;20221;-78
2023/12/07 00:08:11;;;;;;;18.03;12.23;;;0.00;99.90;;;;;;5094227;28;20247;-76
2023/12/07 00:10:36;;;;;;;17.37;11.87;;;0.00;99.90;;;;;;5093015;28;20208;-77
2023/12/07 00:13:02;;;;;;;17.93;11.63;;;0.00;99.90;;;;;;5092676;28;20541;-77
2023/12/07 00:15:28;;;;;;;14.97;11.73;;;0.00;99.90;;;;;;5091770;28;20189;-77
2023/12/07 00:17:53;;;;;;;20.87;12.50;;;0.00;99.90;;;;;;5092547;28;20174;-77
2023/12/07 00:20:19;;;;;;;17.50;11.20;;;0.00;99.90;;;;;;5094213;28;20642;-78
2023/12/07 00:22:44;;;;;;;22.40;11.37;;;0.00;99.90;;;;;;5093972;28;20178;-77
2023/12/07 00:25:10;;;;;;;15.87;10.70;;;0.00;99.90;;;;;;5093879;28;20186;-77
2023/12/07 00:27:35;;;;;;;17.30;10.80;;;0.00;99.90;;;;;;5092455;28;20223;-77
2023/12/07 00:30:01;;;;;;;16.83;11.10;;;0.00;99.90;;;;;;5091943;28;20263;-77
2023/12/07 00:32:27;;;;;;;20.90;12.07;;;0.00;99.90;;;;;;5091706;28;20194;-77
2023/12/07 00:34:52;;;;;;;17.07;11.83;;;0.00;99.90;;;;;;5092269;28;20296;-77
2023/12/07 00:37:18;;;;;;;22.20;12.13;;;0.00;99.90;;;;;;5092362;28;20638;-77
2023/12/07 00:39:43;;;;;;;20.83;13.87;;;0.10;99.90;;;;;;5093732;28;20749;-77
2023/12/07 00:42:09;;;;;;;18.43;12.30;;;0.00;99.90;;;;;;5092268;28;20268;-77
2023/12/07 00:44:39;;;;;;;19.10;13.77;;;0.10;99.90;;;;;;5092967;28;20225;-77
2023/12/07 00:47:05;;;;;;;23.03;13.70;;;0.10;99.90;;;;;;5093939;28;20163;-78
2023/12/07 00:49:30;;;;;;;23.90;14.00;;;0.10;99.90;;;;;;5092269;28;20341;-80
2023/12/07 00:51:56;;;;;;;19.13;14.43;;;0.10;99.90;;;;;;5091855;28;20202;-78
2023/12/07 00:54:21;;;;;;;22.50;12.80;;;0.10;99.90;;;;;;5091956;28;20657;-77
2023/12/07 00:56:47;;;;;;;22.90;14.10;;;0.10;99.90;;;;;;5093033;28;20270;-77
2023/12/07 00:59:12;;;;;;;19.23;13.83;;;0.10;99.90;;;;;;5090457;28;20170;-77
2023/12/07 01:01:38;;;;;;;22.77;14.47;;;0.10;99.90;;;;;;5091684;28;20621;-77
2023/12/07 01:04:05;;;;;;;24.30;14.80;;;0.20;99.90;;;;;;5093093;28;20533;-78
2023/12/07 01:06:31;;;;;;;29.33;14.87;;;0.10;99.90;;;;;;5093149;28;20564;-78
2023/12/07 01:08:56;;;;;;;19.10;14.60;;;0.20;99.90;;;;;;5093369;28;20166;-77
2023/12/07 01:11:22;;;;;;;22.67;14.97;;;0.20;99.90;;;;;;5092832;28;20258;-77
2023/12/07 01:13:47;;;;;;;25.07;15.50;;;0.20;99.90;;;;;;5092788;28;20641;-77
2023/12/07 01:16:13;;;;;;;26.73;16.23;;;0.20;99.90;;;;;;5092437;28;20201;-78
2023/12/07 01:18:38;;;;;;;22.97;15.70;;;0.20;99.90;;;;;;5092850;28;20170;-78
2023/12/07 01:21:04;;;;;;;26.10;16.43;;;0.20;99.90;;;;;;5093215;28;20174;-77
2023/12/07 01:23:29;;;;;;;23.10;15.70;;;0.20;99.90;;;;;;5092861;28;20189;-77
2023/12/07 01:25:55;;;;;;;25.03;15.03;;;0.20;99.90;;;;;;5092787;28;20239;-78
2023/12/07 01:28:20;;;;;;;30.53;15.43;;;0.20;99.90;;;;;;5091483;28;20598;-77
2023/12/07 01:30:46;;;;;;;35.47;16.13;;;0.10;99.90;;;;;;5092708;28;20208;-77
2023/12/07 01:33:11;;;;;;;22.43;14.33;;;0.10;99.90;;;;;;5091791;28;20213;-77
2023/12/07 01:35:37;;;;;;;27.13;15.97;;;0.20;99.90;;;;;;5092651;28;20555;-78
2023/12/07 01:38:02;;;;;;;27.23;15.87;;;0.10;99.90;;;;;;5093236;28;20220;-78
2023/12/07 01:40:28;;;;;;;24.13;15.93;;;0.10;99.90;;;;;;5093246;28;20545;-77
2023/12/07 01:42:53;;;;;;;27.70;16.60;;;0.10;99.90;;;;;;5095578;28;20173;-77
2023/12/07 01:45:20;;;;;;;29.23;16.70;;;0.10;99.90;;;;;;5096793;28;20545;-77
2023/12/07 01:47:47;;;;;;;30.87;16.13;;;0.10;99.90;;;;;;5096877;28;20174;-78
2023/12/07 01:50:17;;;;;;;24.67;16.87;;;0.00;99.90;;;;;;5095766;28;20567;-77
2023/12/07 01:52:47;;;;;;;27.30;15.87;;;0.00;99.90;;;;;;5096886;28;20167;-78
2023/12/07 01:55:14;;;;;;;22.87;15.33;;;-0.10;99.90;;;;;;5097106;28;20182;-77
2023/12/07 01:57:41;;;;;;;23.03;14.57;;;-0.10;99.90;;;;;;5095297;28;20231;-78
2023/12/07 02:00:07;;;;;;;19.93;14.73;;;-0.10;99.90;;;;;;5096741;28;20602;-77
2023/12/07 02:02:33;;;;;;;25.20;14.77;;;-0.10;99.90;;;;;;5096403;28;20245;-78
2023/12/07 02:04:58;;;;;;;24.20;14.57;;;-0.20;99.90;;;;;;5095619;28;20237;-78
2023/12/07 02:07:26;;;;;;;21.73;15.30;;;-0.20;99.90;;;;;;5101662;28;20252;-77
2023/12/07 02:09:51;;;;;;;24.63;15.40;;;-0.20;99.90;;;;;;5115506;28;20696;-77
2023/12/07 02:12:19;;;;;;;23.53;15.57;;;-0.10;99.90;;;;;;5116352;28;20173;-77
2023/12/07 02:14:45;;;;;;;20.90;15.37;;;-0.10;99.90;;;;;;5116138;28;20165;-76
2023/12/07 02:17:10;;;;;;;22.87;15.23;;;-0.20;99.90;;;;;;5116078;28;20260;-77
2023/12/07 02:20:10;;;;;;;21.90;15.70;;;-0.20;99.90;;;;;;5114734;28;20193;-76
2023/12/07 02:22:56;;;;;;;21.77;14.43;;;-0.20;99.90;;;;;;5074035;28;20681;-77
2023/12/07 02:25:48;;;;;;;26.00;14.20;;;-0.30;99.90;;;;;;5075343;28;20238;-76
2023/12/07 02:28:13;;;;;;;24.67;14.67;;;-0.30;99.90;;;;;;5075126;28;20168;-76
2023/12/07 02:30:39;;;;;;;22.17;15.00;;;-0.30;99.90;;;;;;5090477;28;20236;-77
2023/12/07 02:33:05;;;;;;;19.67;13.93;;;-0.30;99.90;;;;;;5094061;28;20220;-77
2023/12/07 02:35:31;;;;;;;20.33;14.43;;;-0.20;99.90;;;;;;5094090;28;20526;-77
2023/12/07 02:37:57;;;;;;;20.33;13.33;;;-0.20;99.90;;;;;;5095258;28;20265;-77
2023/12/07 02:40:28;;;;;;;20.67;14.27;;;-0.20;99.90;;;;;;5095361;28;20637;-77
2023/12/07 02:42:54;;;;;;;21.37;13.67;;;-0.10;99.90;;;;;;5095340;28;20175;-76
2023/12/07 02:45:20;;;;;;;24.87;16.20;;;-0.10;99.90;;;;;;5093653;28;20283;-77
2023/12/07 02:47:45;;;;;;;27.47;18.17;;;0.00;99.90;;;;;;5093900;28;20232;-77
2023/12/07 02:50:12;;;;;;;25.40;19.00;;;0.10;99.90;;;;;;5093646;28;20646;-77
2023/12/07 02:52:37;;;;;;;33.73;20.13;;;0.10;99.90;;;;;;5094632;28;20642;-76
2023/12/07 02:55:04;;;;;;;28.03;20.43;;;0.20;99.90;;;;;;5094952;28;20192;-76
2023/12/07 02:57:29;;;;;;;29.60;20.90;;;0.20;99.90;;;;;;5093575;28;20197;-76
2023/12/07 02:59:56;;;;;;;30.43;21.07;;;0.30;99.90;;;;;;5092794;28;20179;-76
2023/12/07 03:02:21;;;;;;;32.77;21.00;;;0.40;99.90;;;;;;5094825;28;20171;-77
2023/12/07 03:04:47;;;;;;;33.47;21.80;;;0.60;99.90;;;;;;5094722;28;20201;-76
2023/12/07 03:07:12;;;;;;;35.00;22.37;;;0.50;99.90;;;;;;5094753;28;20190;-77
2023/12/07 03:09:38;;;;;;;35.37;23.23;;;0.60;99.90;;;;;;5094780;28;20174;-76
2023/12/07 03:12:04;;;;;;;35.40;23.30;;;0.60;99.90;;;;;;5094740;28;20206;-77
2023/12/07 03:14:30;;;;;;;34.33;24.17;;;0.70;99.90;;;;;;5092488;28;20174;-77
2023/12/07 03:16:55;;;;;;;36.50;24.03;;;0.70;99.90;;;;;;5094156;28;20198;-77
2023/12/07 03:19:21;;;;;;;36.93;23.97;;;0.70;99.90;;;;;;5093263;28;20181;-77
2023/12/07 03:21:46;;;;;;;33.43;22.73;;;0.80;99.90;;;;;;5093160;28;20556;-76
2023/12/07 03:24:12;;;;;;;36.53;23.87;;;0.80;99.90;;;;;;5094532;28;20253;-77
2023/12/07 03:26:38;;;;;;;36.37;24.47;;;0.80;99.90;;;;;;5092965;28;20230;-77
2023/12/07 03:29:03;;;;;;;34.47;23.77;;;0.80;99.90;;;;;;5094280;28;20188;-77
2023/12/07 03:31:30;;;;;;;35.70;24.30;;;0.90;99.90;;;;;;5091395;28;20209;-77
2023/12/07 03:33:56;;;;;;;42.33;23.73;;;0.90;99.90;;;;;;5092991;28;20250;-77
2023/12/07 03:36:22;;;;;;;36.00;23.33;;;0.90;99.90;;;;;;5094173;28;20216;-76
2023/12/07 03:38:48;;;;;;;40.23;23.77;;;0.90;99.90;;;;;;5094173;28;20228;-77
2023/12/07 03:41:13;;;;;;;38.20;24.93;;;1.00;99.90;;;;;;5094183;28;20181;-77
2023/12/07 03:43:39;;;;;;;39.73;24.97;;;1.00;99.90;;;;;;5094165;28;20642;-77
2023/12/07 03:46:06;;;;;;;38.67;23.80;;;1.00;99.90;;;;;;5093969;28;20194;-77
2023/12/07 03:48:32;;;;;;;35.30;24.50;;;1.00;99.90;;;;;;5092709;28;20201;-76
2023/12/07 03:50:58;;;;;;;37.30;23.67;;;1.00;99.90;;;;;;5093881;28;20206;-76
2023/12/07 03:53:23;;;;;;;41.10;25.43;;;1.00;99.90;;;;;;5093467;28;20611;-76
2023/12/07 03:55:49;;;;;;;35.63;24.30;;;1.10;99.90;;;;;;5093847;28;20186;-77
2023/12/07 03:58:14;;;;;;;40.13;25.00;;;1.00;99.90;;;;;;5093839;28;20190;-77
2023/12/07 04:00:40;;;;;;;39.53;23.43;;;1.10;99.90;;;;;;5093876;28;20249;-77
2023/12/07 04:03:06;;;;;;;38.60;24.20;;;1.10;99.90;;;;;;5092629;28;20182;-77
2023/12/07 04:05:31;;;;;;;37.93;25.17;;;1.10;99.90;;;;;;5092470;28;20201;-77
2023/12/07 04:07:57;;;;;;;38.00;24.73;;;1.10;99.90;;;;;;5092416;28;20175;-76
2023/12/07 04:10:23;;;;;;;34.73;23.03;;;1.10;99.90;;;;;;5093588;28;20214;-77
2023/12/07 04:12:49;;;;;;;41.30;24.83;;;1.20;99.90;;;;;;5093507;28;20251;-76
2023/12/07 04:15:14;;;;;;;34.87;23.60;;;1.20;99.90;;;;;;5092233;28;20361;-76
2023/12/07 04:17:40;;;;;;;37.30;24.23;;;1.20;99.90;;;;;;5093379;28;20173;-76
2023/12/07 04:20:07;;;;;;;34.47;22.03;;;1.20;99.90;;;;;;5091573;28;20211;-76
2023/12/07 04:22:33;;;;;;;35.07;22.23;;;1.20;99.90;;;;;;5093717;28;20170;-77
2023/12/07 04:24:58;;;;;;;40.30;24.30;;;1.20;99.90;;;;;;5092214;28;20185;-77
2023/12/07 04:27:24;;;;;;;36.90;22.07;;;1.20;99.90;;;;;;5093575;28;20166;-77
2023/12/07 04:29:49;;;;;;;34.23;22.83;;;1.20;99.90;;;;;;5093197;28;20495;-76
2023/12/07 04:32:15;;;;;;;36.27;22.37;;;1.20;99.90;;;;;;5091884;28;20197;-77
2023/12/07 04:34:40;;;;;;;34.87;21.90;;;1.20;99.90;;;;;;5091803;28;20199;-76
2023/12/07 04:37:06;;;;;;;32.93;21.33;;;1.20;99.90;;;;;;5092022;28;20260;-77
2023/12/07 04:39:31;;;;;;;30.70;21.13;;;1.20;99.90;;;;;;5093284;28;20174;-76
2023/12/07 04:41:57;;;;;;;32.90;21.33;;;1.20;99.90;;;;;;5091702;28;20232;-77
2023/12/07 04:44:24;;;;;;;32.30;22.53;;;1.30;99.90;;;;;;5092913;28;20664;-77
2023/12/07 04:46:50;;;;;;;41.30;22.57;;;1.30;99.90;;;;;;5091543;28;20202;-77
2023/12/07 04:49:15;;;;;;;35.33;21.70;;;1.30;99.90;;;;;;5093030;28;20548;-77
2023/12/07 04:51:41;;;;;;;35.33;22.23;;;1.30;99.90;;;;;;5092524;28;20202;-76
2023/12/07 04:54:07;;;;;;;37.13;22.17;;;1.30;99.90;;;;;;5091723;28;20185;-76
2023/12/07 04:56:33;;;;;;;35.87;21.87;;;1.30;99.90;;;;;;5092734;28;20194;-77
2023/12/07 04:58:58;;;;;;;38.97;22.90;;;1.40;99.90;;;;;;5092817;28;20245;-77
2023/12/07 05:01:24;;;;;;;33.03;21.33;;;1.30;99.90;;;;;;5091233;28;20174;-76
2023/12/07 05:03:49;;;;;;;36.53;23.13;;;1.30;99.90;;;;;;5092895;28;20193;-77
2023/12/07 05:06:15;;;;;;;35.33;23.13;;;1.40;99.90;;;;;;5092765;28;20186;-77
2023/12/07 05:08:41;;;;;;;42.00;21.93;;;1.40;99.90;;;;;;5092013;28;20178;-76
2023/12/07 05:11:06;;;;;;;33.43;22.03;;;1.40;99.90;;;;;;5092543;28;20202;-77
2023/12/07 05:13:33;;;;;;;34.73;22.53;;;1.40;99.90;;;;;;5091353;28;20167;-77
2023/12/07 05:15:59;;;;;;;35.77;22.93;;;1.40;99.90;;;;;;5090910;28;20284;-76
2023/12/07 05:18:25;;;;;;;39.80;24.33;;;1.40;99.90;;;;;;5092236;28;20274;-76
2023/12/07 05:20:50;;;;;;;30.80;21.53;;;1.50;99.90;;;;;;5091547;28;20330;-77
2023/12/07 05:23:17;;;;;;;36.33;22.90;;;1.50;99.90;;;;;;5092957;28;20264;-76
2023/12/07 05:25:43;;;;;;;36.40;23.77;;;1.50;99.90;;;;;;5091819;28;20197;-76
2023/12/07 05:28:08;;;;;;;36.80;22.77;;;1.50;99.90;;;;;;5093053;28;20170;-76
2023/12/07 05:30:36;;;;;;;37.80;24.13;;;1.50;99.90;;;;;;5093868;28;20259;-76
2023/12/07 05:33:01;;;;;;;37.00;24.03;;;1.50;99.90;;;;;;5106037;28;20166;-77
2023/12/07 05:35:27;;;;;;;39.60;26.03;;;1.50;99.90;;;;;;5111745;28;20200;-77
2023/12/07 05:37:52;;;;;;;37.03;24.27;;;1.50;99.90;;;;;;5113253;28;20170;-77
2023/12/07 05:40:18;;;;;;;42.27;24.97;;;1.50;99.90;;;;;;5091536;28;20642;-77
2023/12/07 05:42:44;;;;;;;38.10;24.60;;;1.50;99.90;;;;;;5090707;28;20170;-77
2023/12/07 05:45:10;;;;;;;40.47;26.17;;;1.60;99.90;;;;;;5091814;28;20206;-76
2023/12/07 05:47:36;;;;;;;38.30;24.90;;;1.60;99.90;;;;;;5092269;28;20269;-77
2023/12/07 05:50:03;;;;;;;41.90;25.87;;;1.60;99.90;;;;;;5093103;28;20181;-78
2023/12/07 05:52:28;;;;;;;40.17;25.77;;;1.60;99.90;;;;;;5097651;28;20174;-77
2023/12/07 05:54:54;;;;;;;38.87;24.40;;;1.60;99.90;;;;;;5073799;28;20240;-77
2023/12/07 05:57:20;;;;;;;39.33;24.53;;;1.60;99.90;;;;;;5070688;28;20178;-75
2023/12/07 05:59:46;;;;;;;36.13;24.50;;;1.70;99.90;;;;;;5081903;28;20666;-75
2023/12/07 06:02:11;;;;;;;38.87;25.10;;;1.70;99.90;;;;;;5089651;28;20170;-76
2023/12/07 06:04:37;;;;;;;36.60;23.17;;;1.70;99.90;;;;;;5088064;28;20677;-76
2023/12/07 06:07:03;;;;;;;32.70;22.90;;;1.70;99.90;;;;;;5088130;28;20573;-77
2023/12/07 06:09:29;;;;;;;39.50;23.97;;;1.70;99.90;;;;;;5088110;28;20180;-76
2023/12/07 06:11:55;;;;;;;35.73;23.27;;;1.70;99.90;;;;;;5089978;28;20214;-75
2023/12/07 06:14:22;;;;;;;40.43;25.03;;;1.70;99.90;;;;;;5088499;28;20181;-75
2023/12/07 06:16:48;;;;;;;35.23;25.13;;;1.70;99.90;;;;;;5088373;28;20238;-75
2023/12/07 06:19:14;;;;;;;42.27;26.33;;;1.70;99.90;;;;;;5090299;28;20295;-76
2023/12/07 06:21:39;;;;;;;39.77;24.63;;;1.70;99.90;;;;;;5089591;28;20178;-75
2023/12/07 06:24:05;;;;;;;37.43;25.27;;;1.70;99.90;;;;;;5091029;28;20331;-75
2023/12/07 06:26:30;;;;;;;44.30;25.97;;;1.70;99.90;;;;;;5091142;28;20201;-75
2023/12/07 06:28:56;;;;;;;39.63;24.07;;;1.70;99.90;;;;;;5096098;28;20166;-75
2023/12/07 06:31:22;;;;;;;34.30;24.10;;;1.70;99.90;;;;;;5090819;28;20323;-75
2023/12/07 06:33:48;;;;;;;39.83;24.43;;;1.70;99.90;;;;;;5093345;28;20187;-75
2023/12/07 06:36:21;;;;;;;37.53;24.83;;;1.70;99.90;;;;;;5095729;28;20201;-75
2023/12/07 06:38:47;;;;;;;39.87;25.37;;;1.70;99.90;;;;;;5095820;28;20219;-75
2023/12/07 06:41:14;;;;;;;47.60;27.00;;;1.70;99.90;;;;;;5095364;28;20174;-75
2023/12/07 06:43:39;;;;;;;35.70;24.13;;;1.80;99.90;;;;;;5094348;28;20643;-75
2023/12/07 06:46:05;;;;;;;35.90;24.37;;;1.80;99.90;;;;;;5093081;28;20206;-75
2023/12/07 06:48:31;;;;;;;36.37;24.27;;;1.80;99.90;;;;;;5091536;28;20181;-75
2023/12/07 06:50:57;;;;;;;41.47;24.70;;;1.70;99.90;;;;;;5095037;28;20568;-74
2023/12/07 06:53:22;;;;;;;38.97;25.07;;;1.70;99.90;;;;;;5094996;28;20171;-74
2023/12/07 06:55:48;;;;;;;37.70;24.17;;;1.70;99.90;;;;;;5095001;28;20186;-75
2023/12/07 06:58:13;;;;;;;34.73;23.07;;;1.60;99.90;;;;;;5093339;28;20231;-74
2023/12/07 07:00:39;;;;;;;37.80;23.13;;;1.60;99.90;;;;;;5093693;28;20185;-75
2023/12/07 07:03:06;;;;;;;33.33;21.53;;;1.50;99.90;;;;;;5093082;28;20186;-75
2023/12/07 07:05:31;;;;;;;31.30;20.20;;;1.50;99.90;;;;;;5095028;28;20609;-74
2023/12/07 07:07:57;;;;;;;31.43;21.60;;;1.40;99.90;;;;;;5093556;28;20227;-76
2023/12/07 07:10:22;;;;;;;36.67;22.43;;;1.40;99.90;;;;;;5093460;28;20198;-75
2023/12/07 07:12:48;;;;;;;36.33;22.53;;;1.30;99.90;;;;;;5094583;28;20237;-76
2023/12/07 07:15:14;;;;;;;34.87;21.80;;;1.30;99.90;;;;;;5094860;28;20186;-75
2023/12/07 07:17:40;;;;;;;31.17;21.47;;;1.20;99.90;;;;;;5095007;28;20642;-74
2023/12/07 07:20:06;;;;;;;35.20;22.10;;;1.20;99.90;;;;;;5093686;28;20285;-75
2023/12/07 07:22:31;;;;;;;37.23;21.77;;;1.20;99.90;;;;;;5094778;28;20662;-75
2023/12/07 07:24:57;;;;;;;33.87;20.57;;;1.20;99.90;;;;;;5093368;28;20228;-76
2023/12/07 07:27:23;;;;;;;30.30;20.50;;;1.10;99.90;;;;;;5093290;28;20295;-75
2023/12/07 07:29:48;;;;;;;28.83;19.57;;;1.10;99.90;;;;;;5094633;28;20228;-76
2023/12/07 07:32:14;;;;;;;29.03;21.20;;;1.10;99.90;;;;;;5094768;28;20254;-76
2023/12/07 07:34:39;;;;;;;30.03;19.97;;;1.00;99.90;;;;;;5093541;28;20528;-76
2023/12/07 07:37:06;;;;;;;28.77;20.33;;;1.00;99.90;;;;;;5094604;28;20562;-76
2023/12/07 07:39:32;;;;;;;28.50;20.27;;;1.00;99.90;;;;;;5093423;28;20166;-75
2023/12/07 07:41:58;;;;;;;31.13;21.50;;;0.90;99.90;;;;;;5094397;28;20545;-75
2023/12/07 07:44:23;;;;;;;30.00;19.87;;;0.90;99.90;;;;;;5092984;28;20174;-76
2023/12/07 07:46:49;;;;;;;33.27;19.77;;;0.90;99.90;;;;;;5092975;28;20190;-75
2023/12/07 07:49:14;;;;;;;30.93;19.80;;;0.90;99.90;;;;;;5094473;28;20170;-75
2023/12/07 07:51:40;;;;;;;32.10;20.30;;;0.90;99.90;;;;;;5094306;28;20194;-75
2023/12/07 07:54:05;;;;;;;31.37;20.27;;;0.90;99.90;;;;;;5094093;28;20178;-75
2023/12/07 07:56:31;;;;;;;29.73;21.20;;;0.90;99.90;;;;;;5092664;28;20198;-76
2023/12/07 07:58:59;;;;;;;31.03;20.93;;;0.90;99.90;;;;;;5092708;28;20183;-75
2023/12/07 08:01:25;;;;;;;30.20;19.43;;;0.90;99.90;;;;;;5093888;28;20356;-75
2023/12/07 08:03:50;;;;;;;28.40;19.97;;;0.90;99.90;;;;;;5093862;28;20213;-75
2023/12/07 08:06:16;;;;;;;29.57;20.30;;;0.80;99.90;;;;;;5093805;28;20186;-75
2023/12/07 08:08:41;;;;;;;30.40;20.30;;;0.90;99.90;;;;;;5094061;28;20178;-76
2023/12/07 08:11:07;;;;;;;28.80;19.73;;;0.90;99.90;;;;;;5092353;28;20198;-75
2023/12/07 08:13:32;;;;;;;27.10;19.23;;;0.90;99.90;;;;;;5092463;28;20166;-76
2023/12/07 08:15:58;;;;;;;25.87;19.00;;;0.90;99.90;;;;;;5093771;28;20692;-75
2023/12/07 08:18:23;;;;;;;28.17;19.60;;;0.90;99.90;;;;;;5092770;28;20274;-76
2023/12/07 08:20:49;;;;;;;28.07;20.43;;;0.90;99.90;;;;;;5094534;28;20171;-75
2023/12/07 08:23:14;;;;;;;30.47;20.80;;;1.00;99.90;;;;;;5093831;28;20174;-75
2023/12/07 08:25:40;;;;;;;35.53;21.27;;;1.00;99.90;;;;;;5093742;28;20190;-76
2023/12/07 08:28:06;;;;;;;31.00;19.67;;;1.00;99.90;;;;;;5092367;28;20178;-75
2023/12/07 08:30:31;;;;;;;29.03;19.73;;;1.00;99.90;;;;;;5092166;28;20304;-75
2023/12/07 08:32:57;;;;;;;29.80;19.23;;;1.00;99.90;;;;;;5092480;28;20166;-75
2023/12/07 08:35:23;;;;;;;32.90;19.57;;;1.10;99.90;;;;;;5093537;28;20201;-76
2023/12/07 08:37:48;;;;;;;27.87;19.00;;;1.10;99.90;;;;;;5093511;28;20166;-76
2023/12/07 08:40:15;;;;;;;29.17;20.10;;;1.10;99.90;;;;;;5093988;28;20171;-75
2023/12/07 08:42:43;;;;;;;28.80;19.57;;;1.10;99.90;;;;;;5093699;28;20641;-75
2023/12/07 08:45:09;;;;;;;31.60;18.80;;;1.10;99.90;;;;;;5093613;28;20205;-75
2023/12/07 08:47:35;;;;;;;28.40;20.00;;;1.10;99.90;;;;;;5093586;28;20547;-75
2023/12/07 08:50:00;;;;;;;27.77;19.00;;;1.20;99.90;;;;;;5091735;28;20174;-75
2023/12/07 08:52:26;;;;;;;31.20;19.87;;;1.20;99.90;;;;;;5092154;28;20174;-76
2023/12/07 08:54:52;;;;;;;28.20;18.27;;;1.20;99.90;;;;;;5093585;28;20525;-76
2023/12/07 08:57:18;;;;;;;27.40;18.17;;;1.30;99.90;;;;;;5093438;28;20231;-75
2023/12/07 08:59:44;;;;;;;27.87;19.03;;;1.30;99.90;;;;;;5093384;28;20174;-75
2023/12/07 09:02:09;;;;;;;25.67;18.10;;;1.40;99.90;;;;;;5093221;28;20653;-75
2023/12/07 09:04:35;;;;;;;32.90;18.57;;;1.40;99.90;;;;;;5093524;28;20178;-75
2023/12/07 09:07:00;;;;;;;29.57;18.07;;;1.50;99.90;;;;;;5092993;28;20189;-75
2023/12/07 09:09:26;;;;;;;30.63;18.63;;;1.50;99.90;;;;;;5091973;28;20627;-76
2023/12/07 09:11:52;;;;;;;29.10;18.33;;;1.60;99.90;;;;;;5093038;28;20712;-75
2023/12/07 09:14:17;;;;;;;30.07;19.33;;;1.60;99.90;;;;;;5092938;28;20249;-76
2023/12/07 09:16:46;;;;;;;29.93;19.23;;;1.60;99.90;;;;;;5092681;28;20482;-76
2023/12/07 09:19:13;;;;;;;32.37;19.47;;;1.60;99.90;;;;;;5091762;28;20178;-76
2023/12/07 09:21:41;;;;;;;28.77;19.10;;;1.60;99.90;;;;;;5091581;28;20182;-75
2023/12/07 09:24:07;;;;;;;30.80;19.67;;;1.70;99.90;;;;;;5093300;28;20174;-76
2023/12/07 09:26:33;;;;;;;34.07;21.03;;;1.70;99.90;;;;;;5092045;28;20198;-76
2023/12/07 09:28:59;;;;;;;28.17;19.57;;;1.80;99.90;;;;;;5091558;28;20182;-76
2023/12/07 09:31:25;;;;;;;29.77;19.90;;;1.80;99.90;;;;;;5091512;28;20210;-76
2023/12/07 09:33:52;;;;;;;29.33;19.47;;;1.80;99.90;;;;;;5093349;28;20174;-75
2023/12/07 09:36:18;;;;;;;33.33;20.47;;;1.90;99.90;;;;;;5091209;28;20576;-75
2023/12/07 09:38:44;;;;;;;28.57;20.07;;;1.90;99.90;;;;;;5091369;28;20175;-75
2023/12/07 09:41:10;;;;;;;32.00;20.03;;;2.00;99.90;;;;;;5091257;28;20185;-75
2023/12/07 09:43:36;;;;;;;26.50;19.80;;;2.00;99.90;;;;;;5092504;28;20201;-75
2023/12/07 09:46:02;;;;;;;30.93;19.70;;;2.10;99.90;;;;;;5091212;28;20238;-75
2023/12/07 09:48:28;;;;;;;30.20;19.53;;;2.10;99.90;;;;;;5091352;28;20246;-75
2023/12/07 09:50:56;;;;;;;33.90;19.90;;;2.10;99.90;;;;;;5091347;28;20692;-75
2023/12/07 09:53:22;;;;;;;32.20;19.40;;;2.20;99.90;;;;;;5091325;28;20265;-75
2023/12/07 09:55:48;;;;;;;30.50;19.53;;;2.20;99.90;;;;;;5091283;28;20796;-75
2023/12/07 09:58:14;;;;;;;32.73;21.37;;;2.20;99.90;;;;;;5091370;28;20174;-75
2023/12/07 10:00:40;;;;;;;30.13;20.47;;;2.30;99.90;;;;;;5092513;28;20181;-76
2023/12/07 10:03:09;;;;;;;30.03;19.47;;;2.30;99.90;;;;;;5095122;28;20175;-76
2023/12/07 10:05:52;;;;;;;30.27;19.00;;;2.30;99.90;;;;;;5096435;28;20210;-74
2023/12/07 10:08:26;;;;;;;29.07;19.67;;;2.30;99.90;;;;;;5097531;28;20172;-75
2023/12/07 10:11:12;;;;;;;30.97;19.70;;;2.40;99.90;;;;;;5095628;28;20758;-75
2023/12/07 10:13:38;;;;;;;27.80;19.90;;;2.40;99.90;;;;;;5097241;28;20158;-75
2023/12/07 10:16:15;;;;;;;30.77;20.10;;;2.50;99.90;;;;;;5095366;28;20186;-75
2023/12/07 10:18:41;;;;;;;30.57;20.60;;;2.50;99.90;;;;;;5096309;28;20207;-76
2023/12/07 10:21:09;;;;;;;29.70;19.80;;;2.50;99.90;;;;;;5094835;28;20592;-76
2023/12/07 10:23:34;;;;;;;29.93;18.93;;;2.50;99.90;;;;;;5096388;28;20167;-75
2023/12/07 10:26:00;;;;;;;29.57;19.60;;;2.60;99.90;;;;;;5096977;28;20213;-75
2023/12/07 10:28:26;;;;;;;35.80;21.37;;;2.60;99.90;;;;;;5096768;28;20174;-76
2023/12/07 10:30:51;;;;;;;30.47;19.20;;;2.60;99.90;;;;;;5097275;28;20611;-75
2023/12/07 10:33:19;;;;;;;30.37;19.10;;;2.70;99.90;;;;;;5096726;28;20174;-75
2023/12/07 10:35:50;;;;;;;28.70;19.87;;;2.70;99.90;;;;;;5096329;28;20660;-75
2023/12/07 10:38:16;;;;;;;27.13;20.20;;;2.80;99.90;;;;;;5094647;28;20212;-76
2023/12/07 10:40:42;;;;;;;30.53;18.70;;;2.80;99.90;;;;;;5094828;28;20264;-76
2023/12/07 10:43:08;;;;;;;28.77;18.97;;;2.80;99.90;;;;;;5094526;28;20581;-76
2023/12/07 10:45:36;;;;;;;30.40;19.07;;;2.80;99.90;;;;;;5095811;28;20194;-76
2023/12/07 10:48:07;;;;;;;32.20;18.83;;;2.80;99.90;;;;;;5094160;28;20186;-78
2023/12/07 10:50:41;;;;;;;30.63;18.33;;;2.90;99.90;;;;;;5094449;28;20198;-76
2023/12/07 10:53:19;;;;;;;30.57;18.20;;;2.90;99.90;;;;;;5095191;28;20233;-75
2023/12/07 10:55:55;;;;;;;27.93;19.30;;;3.00;99.90;;;;;;5095103;28;20561;-76
2023/12/07 10:58:25;;;;;;;32.13;18.87;;;3.00;99.90;;;;;;5093775;28;20215;-76
2023/12/07 11:00:52;;;;;;;28.40;18.83;;;3.00;99.90;;;;;;5094944;28;20178;-76
2023/12/07 11:03:17;;;;;;;29.00;19.23;;;3.00;99.90;;;;;;5094822;28;20174;-77
2023/12/07 11:05:45;;;;;;;32.47;18.87;;;3.00;99.90;;;;;;5094703;28;20206;-76
2023/12/07 11:08:34;;;;;;;29.10;18.57;;;3.00;99.90;;;;;;5094828;28;20166;-76
2023/12/07 11:11:20;;;;;;;26.10;18.83;;;3.00;99.90;;;;;;5086890;28;20213;-77
2023/12/07 11:13:53;;;;;;;26.30;18.27;;;3.10;99.90;;;;;;5094403;28;20169;-76
2023/12/07 11:16:32;;;;;;;29.17;18.13;;;3.00;99.90;;;;;;5094619;28;20247;-77
2023/12/07 11:19:00;;;;;;;27.77;19.83;;;3.10;99.90;;;;;;5094658;28;20158;-76
2023/12/07 11:21:26;;;;;;;24.57;17.70;;;3.10;99.90;;;;;;5093202;28;20179;-77
2023/12/07 11:23:55;;;;;;;25.43;17.77;;;3.20;99.90;;;;;;5093232;28;20183;-76
2023/12/07 11:26:23;;;;;;;26.70;18.80;;;3.20;99.90;;;;;;5094467;28;20228;-76
2023/12/07 11:28:49;;;;;;;26.27;18.20;;;3.20;99.90;;;;;;5094505;28;20166;-76
2023/12/07 11:31:15;;;;;;;25.73;17.67;;;3.30;99.90;;;;;;5094221;28;20208;-76
2023/12/07 11:33:42;;;;;;;25.13;17.47;;;3.30;99.90;;;;;;5094323;28;20159;-77
2023/12/07 11:36:12;;;;;;;26.83;17.87;;;3.30;99.90;;;;;;5092888;28;20273;-76
2023/12/07 11:38:38;;;;;;;25.80;17.37;;;3.40;99.90;;;;;;5094381;28;20215;-76
2023/12/07 11:41:04;;;;;;;22.50;16.77;;;3.40;99.90;;;;;;5092979;28;20173;-77
2023/12/07 11:43:33;;;;;;;25.60;16.87;;;3.40;99.90;;;;;;5092868;28;20601;-76
2023/12/07 11:45:59;;;;;;;21.43;16.30;;;3.50;99.90;;;;;;5094073;28;20700;-76
2023/12/07 11:48:24;;;;;;;24.87;16.40;;;3.50;99.90;;;;;;5093998;28;20170;-76
2023/12/07 11:51:04;;;;;;;24.40;16.07;;;3.60;99.90;;;;;;5093931;28;20666;-77
2023/12/07 11:53:31;;;;;;;20.47;15.80;;;3.60;99.90;;;;;;5092905;28;20561;-76
2023/12/07 11:55:58;;;;;;;18.90;14.60;;;3.60;99.90;;;;;;5092528;28;20194;-76
2023/12/07 11:58:28;;;;;;;22.47;13.97;;;3.50;99.90;;;;;;5092430;28;20239;-76
2023/12/07 12:00:56;;;;;;;16.97;13.57;;;3.50;99.90;;;;;;5093683;28;20170;-76
2023/12/07 12:03:25;;;;;;;19.07;13.40;;;3.60;99.90;;;;;;5093619;28;20170;-76
2023/12/07 12:05:51;;;;;;;20.60;14.03;;;3.60;99.90;;;;;;5093526;28;20239;-76
2023/12/07 12:08:17;;;;;;;18.20;13.03;;;3.60;99.90;;;;;;5093802;28;20178;-76
2023/12/07 12:10:44;;;;;;;15.93;12.73;;;3.60;99.90;;;;;;5092096;28;20344;-76
2023/12/07 12:13:10;;;;;;;16.07;12.30;;;3.70;99.90;;;;;;5093469;28;20245;-76
2023/12/07 12:15:35;;;;;;;18.13;12.37;;;3.70;99.90;;;;;;5093310;28;20217;-76
2023/12/07 12:18:01;;;;;;;16.43;12.83;;;3.80;99.90;;;;;;5093296;28;20192;-76
2023/12/07 12:20:27;;;;;;;18.93;12.37;;;3.80;99.90;;;;;;5091910;28;20193;-76
2023/12/07 12:22:54;;;;;;;16.73;11.53;;;3.80;99.90;;;;;;5092009;28;20181;-76
2023/12/07 12:25:25;;;;;;;16.87;11.60;;;3.80;99.90;;;;;;5092497;28;20193;-76
2023/12/07 12:27:56;;;;;;;15.40;11.43;;;3.80;99.90;;;;;;5093263;28;20503;-76
2023/12/07 12:30:25;;;;;;;15.53;12.07;;;3.80;99.90;;;;;;5091657;28;20206;-76
2023/12/07 12:32:51;;;;;;;14.00;10.53;;;3.90;99.90;;;;;;5093294;28;20207;-76